Главная страница
METAR-TAF:

METAR-TAF

Аэропорты :

Веллингтон, Новая Зеландия

широта: 41-20S, долгота: 174-48E, высота над уровнем моря: 12 м

Текущие метеонаблюдения

Эта сводка был подготовлена 39 минут назад, в 18:30 UTC
Ветер 16 Узел от северный
Температура 13°C
Влажность 72%
Давление 1016 hPa
Видимость 10 км и более

METAR: NZWN 231830Z AUTO 36016KT 9999 NCD 13/08 Q1016 NOSIG

Время: 07:09 (19:09 UTC)

Прогноз

Эта сводка был подготовлена 2 часа и 6 минут назад, в 17:03 UTC
Прогноз действительный с 23-го 18 UTC до 24-го 18 UTC
Ветер 15 Узел от северный с порывами до 25 Узел
Видимость 10 км и более
Отдельные облака на высоте 2500 фута
изменения
С 24-го 01 UTC до 24-го 03 UTC
Ветер 15 Узел от северно-северо-западный
изменения
С 24-го 05 UTC до 24-го 07 UTC
Ветер 10 Узел от южный
изменения
С 24-го 09 UTC до 24-го 11 UTC
Ветер 5 Узел от северо-северо-восточный

TAF: NZWN 231703Z 2318/2418 35015G25KT 9999 SCT025 BECMG 2401/2403 34015KT BECMG 2405/2407 18010KT BECMG 2409/2411 02005KT

Метеонаблюдения и прогнозы для более 4000 аэропортов (сводки METAR и TAF).

Имеющиеся станции представлены на карте желтыми и красными точками.

Чтобы увидеть название станции, наведите на нее мышь.

Затем щелкните, чтобы увидеть метеонаблюдения и метеопрогнозы.

Управление картой: чтобы увеличить масштаб, щелкните зеленые кнопки с черным крестиком; чтобы уменьшить масштаб, щелкните зеленую кнопку с тире; для просмотра соседних карт щелкайте зеленые стрелки.


METAR-TAF: